Airfield :
LOGIN :

Register | Disclaimer

   EN    FR    IT 

 










Legend :    VFR   Marginal VFR   IFR   Intensive IFR   Very Intensive IFR
Visi :
Ceiling :
>= 8 km
>= 3000ft
5 to 8 km
1000 to 3000 ft
1500m to 5 km
500 to 1000 ft
800 to 1500m
200 to 500 ft
< 800m
< 200 ft
Symbols :   Thunderstorms  Fog  Heavy snow  Heavy precipitations  Wind > 20 kt
SIGMETs :     Misc.  Thunderstorms  Icing  Turbulence  Mountain Waves  Volcanic Ashes







- Airport Elevation : 989 ft
- IATA code : TRN


LIMF - Torino Caselle

CURRENT METAR :
  • 220020Z 27003KT 1500 BR NSC 11/10 Q1017

EXPIRED METARs :
  • 212350Z 25003KT 220V280 1500 BR NSC 12/10 Q1018
  • 212320Z VRB01KT 1500 BR NSC 12/11 Q1018
  • 212250Z 34003KT 1800 BR NSC 12/11 Q1018
  • 212220Z 34003KT 2000 BR NSC 13/11 Q1018
  • 212150Z 34003KT 2000 BR NSC 12/11 Q1018

TAF TAF LIMF
Valid from the 22 at 00:00 until the 23 at 00:00 UTC


212300Z 2200/2224 VRB05KT 2000 BR BKN025
TEMPO 2200/2206 1200
BECMG 2206/2208 5000
BECMG 2211/2213 33015G25KT 9999
BECMG 2219/2221 33005KT
No reported NOTAMs for that airfield.
1 SIGMET reported for the Milano FIR (LIMM) :
 
Embedded thunderstorms
LIMM SIGMET 1 VALID 220010/220410 LIIP
LIMM MILANO FIR EMBD TS FCST WI N4524 E00718 - N4549 E00904 - N4416 E00855 - N4347 E01010 - N4358 E01136 - N4438 E00945 - N4507 E01054 - N4607 E01137 - N4700 E01144 - N4624 E00925 - N4555 E00706 - N4524 E00718 TOP FL300 MOV SE INTSF=



MET'MAP, your aeronautical weather chart ! - Copyright ORBIFLY December 2007 - Disclaimer

ORBIFLY MET'MAP TEAM :

Programming & Development : Alexandra Zaïnal
Concept & Development : Baudouin d'Aumeries
Co-Development & Prog : Marc-Olivier Méhu
Technical & hardware support : Manuel Goepfert

Contact : metmap@orbifly.com




SOURCES & CREDITS :

   NOAA